createdAt,value
2023-01-04T00:01:33.798Z,101635.81
2023-01-04T00:04:01.219Z,101625.41
2023-01-04T00:06:28.656Z,101628.94
2023-01-04T00:08:56.123Z,101619.34
2023-01-04T00:11:24.408Z,101616.72
2023-01-04T00:13:57.427Z,101608.94
2023-01-04T00:16:26.931Z,101587.09
2023-01-04T00:18:55.029Z,101594.25
2023-01-04T00:21:30.281Z,101582.09
2023-01-04T00:24:00.106Z,101577.78
2023-01-04T00:26:30.515Z,101566.41
2023-01-04T00:29:01.205Z,101554.19
2023-01-04T00:31:30.746Z,101551.56
2023-01-04T00:34:00.418Z,101548.13
2023-01-04T00:36:28.772Z,101540.31
2023-01-04T00:39:09.182Z,101539.44
2023-01-04T00:42:02.413Z,101529.91
2023-01-04T00:44:31.558Z,101524.72
2023-01-04T00:47:00.227Z,101522.09
2023-01-04T00:49:29.499Z,101513.41
2023-01-04T00:51:57.065Z,101516.84
2023-01-04T00:54:24.937Z,101502.00
2023-01-04T00:56:52.524Z,101488.91
2023-01-04T00:59:21.471Z,101480.16
2023-01-04T01:01:49.343Z,101471.47
2023-01-04T01:04:21.759Z,101466.19
2023-01-04T01:06:50.189Z,101453.91
2023-01-04T01:09:18.115Z,101464.38
2023-01-04T01:11:45.727Z,101460.91
2023-01-04T01:14:19.074Z,101437.31
2023-01-04T01:16:56.454Z,101435.53
2023-01-04T01:19:26.969Z,101447.75
2023-01-04T01:21:54.621Z,101439.00
2023-01-04T01:24:22.390Z,101419.78
2023-01-04T01:26:49.985Z,101429.44
2023-01-04T01:29:17.313Z,101413.72
2023-01-04T01:31:44.878Z,101412.84
2023-01-04T01:34:12.444Z,101410.28
2023-01-04T01:36:39.857Z,101396.31
2023-01-04T01:39:07.436Z,101387.63
2023-01-04T01:41:35.658Z,101382.38
2023-01-04T01:44:40.816Z,101373.66
2023-01-04T01:47:14.722Z,101376.22
2023-01-04T01:49:43.747Z,101369.22
2023-01-04T01:52:17.251Z,101349.16
2023-01-04T01:54:54.749Z,101355.22
2023-01-04T01:57:26.157Z,101362.19
2023-01-04T01:59:57.338Z,101346.47
2023-01-04T02:02:28.101Z,101339.47
2023-01-04T02:04:56.421Z,101322.84
2023-01-04T02:07:27.583Z,101316.72
2023-01-04T02:09:56.712Z,101315.84
2023-01-04T02:12:25.333Z,101307.13
2023-01-04T02:14:52.866Z,101304.50
2023-01-04T02:18:02.026Z,101294.03
2023-01-04T02:20:54.684Z,101282.63
2023-01-04T02:23:27.974Z,101280.00
2023-01-04T02:26:07.561Z,101270.41
2023-01-04T02:28:56.182Z,101280.00
2023-01-04T02:31:36.112Z,101256.47
2023-01-04T02:34:26.523Z,101237.28
2023-01-04T02:37:09.142Z,101254.78
2023-01-04T02:39:58.130Z,101239.94
2023-01-04T02:43:09.602Z,101224.25
2023-01-04T02:45:57.130Z,101226.03
2023-01-04T02:48:43.101Z,101218.22
2023-01-04T02:51:28.664Z,101205.13
2023-01-04T02:54:04.181Z,101198.19
2023-01-04T02:56:38.706Z,101202.53
2023-01-04T02:59:36.083Z,101194.72
2023-01-04T03:02:34.680Z,101198.25
2023-01-04T03:05:57.728Z,101187.78
2023-01-04T03:08:28.100Z,101168.59
2023-01-04T03:10:58.277Z,101162.50
2023-01-04T03:13:32.828Z,101166.06
2023-01-04T03:16:19.700Z,101163.50
2023-01-04T03:18:52.945Z,101169.59
2023-01-04T03:21:23.661Z,101160.00
2023-01-04T03:24:13.425Z,101137.31
2023-01-04T03:27:06.286Z,101144.31
2023-01-04T03:29:56.471Z,101122.50
2023-01-04T03:32:59.333Z,101125.16
2023-01-04T03:35:37.727Z,101126.09
2023-01-04T03:38:30.542Z,101116.50
2023-01-04T03:41:22.478Z,101114.75
2023-01-04T03:44:41.699Z,101102.63
2023-01-04T03:47:36.336Z,101111.38
2023-01-04T03:50:13.840Z,101094.81
2023-01-04T03:52:44.830Z,101087.91
2023-01-04T03:55:13.748Z,101085.28
2023-01-04T03:57:42.218Z,101071.41
2023-01-04T04:00:14.557Z,101070.59
2023-01-04T04:02:42.966Z,101071.53
2023-01-04T04:05:37.565Z,101076.81
2023-01-04T04:08:24.043Z,101064.66
2023-01-04T04:10:51.567Z,101064.72
2023-01-04T04:13:19.194Z,101063.06
2023-01-04T04:15:46.479Z,101055.28
2023-01-04T04:18:13.756Z,101047.50
2023-01-04T04:20:41.080Z,101048.47
2023-01-04T04:23:08.366Z,101038.97
2023-01-04T04:25:35.647Z,101032.00
2023-01-04T04:28:03.286Z,101017.22
2023-01-04T04:30:30.639Z,101015.56
2023-01-04T04:32:57.880Z,101006.00
2023-01-04T04:35:25.262Z,101009.59
2023-01-04T04:37:53.752Z,101005.28
2023-01-04T04:40:40.060Z,101007.13
2023-01-04T04:43:09.078Z,100990.50
2023-01-04T04:45:36.623Z,100991.44
2023-01-04T04:48:04.006Z,100990.63
2023-01-04T04:50:31.565Z,100990.69
2023-01-04T04:52:58.965Z,100986.38
2023-01-04T04:55:26.369Z,100978.56
2023-01-04T04:57:53.581Z,100980.34
2023-01-04T05:00:21.063Z,100967.34
2023-01-04T05:02:48.553Z,100974.41
2023-01-04T05:05:16.142Z,100967.41
2023-01-04T05:07:43.715Z,100970.97
2023-01-04T05:10:11.096Z,100973.66
2023-01-04T05:12:58.108Z,100965.84
2023-01-04T05:15:47.913Z,100976.41
2023-01-04T05:18:17.218Z,100965.94
2023-01-04T05:20:44.847Z,100962.47
2023-01-04T05:23:14.702Z,100966.00
2023-01-04T05:25:42.244Z,100965.16
2023-01-04T05:28:10.298Z,100966.06
2023-01-04T05:30:53.958Z,100960.84
2023-01-04T05:33:24.790Z,100966.16
2023-01-04T05:35:52.561Z,100967.94
2023-01-04T05:42:26.115Z,100965.38
2023-01-04T05:44:55.755Z,100954.06
2023-01-04T05:47:24.874Z,100942.75
2023-01-04T05:49:52.744Z,100953.28
2023-01-04T05:52:20.430Z,100952.47
2023-01-04T05:54:48.160Z,100945.47
2023-01-04T05:57:18.679Z,100932.38
2023-01-04T05:59:46.050Z,100930.69
2023-01-04T06:02:19.515Z,100919.31
2023-01-04T06:04:51.551Z,100917.59
2023-01-04T06:07:22.367Z,100931.63
2023-01-04T06:09:50.094Z,100932.50
2023-01-04T06:12:17.336Z,100925.50
2023-01-04T06:14:45.912Z,100911.44
2023-01-04T06:17:13.585Z,100922.84
2023-01-04T06:19:43.851Z,100921.09
2023-01-04T06:22:11.809Z,100908.81
2023-01-04T06:24:39.140Z,100914.03
2023-01-04T06:27:09.659Z,100925.44
2023-01-04T06:29:38.370Z,100920.19
2023-01-04T06:32:05.742Z,100930.69
2023-01-04T06:34:33.146Z,100932.44
2023-01-04T06:37:00.690Z,100926.34
2023-01-04T06:39:28.657Z,100927.22
2023-01-04T06:42:01.904Z,100920.25
2023-01-04T06:44:32.985Z,100917.63
2023-01-04T06:47:00.243Z,100917.63
2023-01-04T06:49:27.588Z,100911.47
2023-01-04T06:51:54.840Z,100925.53
2023-01-04T06:54:22.113Z,100916.75
2023-01-04T06:56:50.845Z,100921.16
2023-01-04T06:59:18.233Z,100921.16
2023-01-04T07:01:45.788Z,100910.63
2023-01-04T07:04:13.450Z,100917.63
2023-01-04T07:06:41.037Z,100906.25
2023-01-04T07:09:08.329Z,100912.38
2023-01-04T07:11:35.664Z,100908.88
2023-01-04T07:14:02.972Z,100908.00
2023-01-04T07:16:30.361Z,100902.75
2023-01-04T07:18:57.741Z,100896.63
2023-01-04T07:21:27.065Z,100902.78
2023-01-04T07:23:54.416Z,100905.41
2023-01-04T07:26:21.681Z,100904.53
2023-01-04T07:29:07.849Z,100891.41
2023-01-04T07:31:35.371Z,100895.81
2023-01-04T07:34:02.708Z,100898.47
2023-01-04T07:36:30.151Z,100894.94
2023-01-04T07:39:00.463Z,100901.97
2023-01-04T07:41:28.079Z,100892.38
2023-01-04T07:43:55.351Z,100890.63
2023-01-04T07:46:22.893Z,100905.53
2023-01-04T07:48:51.609Z,100884.53
2023-01-04T07:51:18.862Z,100889.78
2023-01-04T07:53:46.168Z,100886.28
2023-01-04T07:56:18.537Z,100881.91
2023-01-04T07:58:46.195Z,100877.53
2023-01-04T08:01:16.107Z,100881.94
2023-01-04T08:03:46.409Z,100886.34
2023-01-04T08:06:15.806Z,100880.19
2023-01-04T08:08:44.110Z,100888.06
2023-01-04T08:11:14.563Z,100888.94
2023-01-04T08:13:42.784Z,100884.59
2023-01-04T08:16:18.234Z,100878.44
2023-01-04T08:18:46.598Z,100887.19
2023-01-04T08:21:13.944Z,100896.88
2023-01-04T08:23:41.275Z,100896.00
2023-01-04T08:26:11.521Z,100898.63
2023-01-04T08:28:39.317Z,100881.94
2023-01-04T08:31:13.157Z,100889.84
2023-01-04T08:33:43.758Z,100893.38
2023-01-04T08:36:27.550Z,100891.63
2023-01-04T08:39:01.992Z,100891.63
2023-01-04T08:41:56.808Z,100898.63
2023-01-04T08:44:23.003Z,100896.03
2023-01-04T08:46:54.107Z,100897.81
2023-01-04T08:49:22.525Z,100887.28
2023-01-04T08:51:50.618Z,100875.00
2023-01-04T08:54:18.337Z,100893.44
2023-01-04T08:56:45.726Z,100888.19
2023-01-04T08:59:13.882Z,100886.41
2023-01-04T09:01:44.450Z,100897.81
2023-01-04T09:04:11.757Z,100890.81
2023-01-04T09:06:39.233Z,100887.28
2023-01-04T09:09:06.718Z,100889.91
2023-01-04T09:11:35.396Z,100897.81
2023-01-04T09:14:07.833Z,100897.84
2023-01-04T09:16:38.160Z,100889.94
2023-01-04T09:19:06.908Z,100880.25
2023-01-04T09:21:34.945Z,100885.53
2023-01-04T09:24:02.388Z,100884.66
2023-01-04T09:26:29.863Z,100884.66
2023-01-04T09:28:57.250Z,100896.97
2023-01-04T09:31:27.648Z,100877.66
2023-01-04T09:34:15.416Z,100878.56
2023-01-04T09:36:46.439Z,100878.53
2023-01-04T09:39:21.776Z,100882.06
2023-01-04T09:42:00.533Z,100878.53
2023-01-04T09:47:33.197Z,100882.94
2023-01-04T09:50:16.637Z,100890.84
2023-01-04T09:52:57.371Z,100882.06
2023-01-04T09:55:39.757Z,100889.97
2023-01-04T09:58:14.228Z,100882.94
2023-01-04T10:00:47.225Z,100892.66
2023-01-04T10:03:30.109Z,100883.88
2023-01-04T10:05:58.289Z,100883.00
2023-01-04T10:08:25.655Z,100883.03
2023-01-04T10:11:11.285Z,100878.66
2023-01-04T10:13:57.295Z,100890.06
2023-01-04T10:23:02.304Z,100888.38
2023-01-04T10:25:48.594Z,100900.69
2023-01-04T10:28:16.262Z,100878.75
2023-01-04T10:31:39.929Z,100891.97
2023-01-04T10:34:06.608Z,100877.03
2023-01-04T10:36:34.860Z,100881.44
2023-01-04T10:39:05.852Z,100884.97
2023-01-04T10:41:38.954Z,100877.97
2023-01-04T10:44:45.260Z,100867.44
2023-01-04T10:47:31.325Z,100869.22
2023-01-04T10:50:05.244Z,100873.59
2023-01-04T10:52:41.590Z,100870.13
2023-01-04T10:55:27.633Z,100870.09
2023-01-04T10:58:07.037Z,100863.97
2023-01-04T11:00:50.598Z,100869.25
2023-01-04T11:03:22.488Z,100853.47
2023-01-04T11:06:09.795Z,100858.72
2023-01-04T11:08:45.980Z,100854.34
2023-01-04T11:11:24.149Z,100835.03
2023-01-04T11:13:51.811Z,100839.44
2023-01-04T11:16:19.812Z,100830.63
2023-01-04T11:18:50.297Z,100838.56
2023-01-04T11:21:23.161Z,100833.31
2023-01-04T11:23:50.462Z,100836.81
2023-01-04T11:26:25.424Z,100825.38
2023-01-04T11:28:57.744Z,100819.25
2023-01-04T11:31:29.120Z,100824.50
2023-01-04T11:33:58.049Z,100819.25
2023-01-04T11:36:33.337Z,100821.00
2023-01-04T11:39:01.617Z,100820.16
2023-01-04T11:41:29.064Z,100822.78
2023-01-04T11:44:05.459Z,100821.00
2023-01-04T11:46:34.973Z,100803.44
2023-01-04T11:49:02.392Z,100812.22
2023-01-04T11:51:29.852Z,100801.69
2023-01-04T11:54:01.587Z,100799.03
2023-01-04T11:56:30.727Z,100801.66
2023-01-04T11:59:06.813Z,100797.28
2023-01-04T12:01:40.904Z,100801.69
2023-01-04T12:04:24.136Z,100805.19
2023-01-04T12:07:05.152Z,100801.69
2023-01-04T12:09:32.757Z,100801.69
2023-01-04T12:12:01.122Z,100805.19
2023-01-04T12:14:37.907Z,100806.06
2023-01-04T12:17:13.683Z,100797.28
2023-01-04T12:19:43.425Z,100799.91
2023-01-04T12:22:37.320Z,100799.94
2023-01-04T12:25:09.986Z,100797.28
2023-01-04T12:27:37.555Z,100794.63
2023-01-04T12:30:07.252Z,100788.47
2023-01-04T12:32:34.710Z,100791.13
2023-01-04T12:35:02.101Z,100772.66
2023-01-04T12:37:40.771Z,100778.81
2023-01-04T12:40:45.248Z,100770.91
2023-01-04T12:43:15.561Z,100776.16
2023-01-04T12:45:48.586Z,100782.31
2023-01-04T12:48:46.853Z,100776.16
2023-01-04T12:51:32.380Z,100771.78
2023-01-04T12:54:06.151Z,100787.59
2023-01-04T12:57:10.664Z,100767.38
2023-01-04T12:59:53.256Z,100772.66
2023-01-04T13:02:30.786Z,100769.13
2023-01-04T13:05:54.301Z,100771.75
2023-01-04T13:07:55.318Z,100788.47
2023-01-04T13:10:32.174Z,100777.94
2023-01-04T13:13:18.058Z,100778.78
2023-01-04T13:16:09.005Z,100771.75
2023-01-04T13:18:51.155Z,100773.53
2023-01-04T13:21:28.006Z,100765.59
2023-01-04T13:23:58.326Z,100774.41
2023-01-04T13:26:31.734Z,100770.00
2023-01-04T13:29:11.816Z,100772.66
2023-01-04T13:31:42.981Z,100783.19
2023-01-04T13:34:20.103Z,100781.47
2023-01-04T13:37:14.897Z,100782.31
2023-01-04T13:39:51.732Z,100781.44
2023-01-04T13:42:18.988Z,100780.56
2023-01-04T13:45:20.442Z,100770.00
2023-01-04T13:47:51.776Z,100778.81
2023-01-04T13:50:31.243Z,100761.25
2023-01-04T13:53:14.028Z,100765.63
2023-01-04T13:55:41.304Z,100754.19
2023-01-04T13:58:23.018Z,100755.97
2023-01-04T14:01:14.174Z,100771.78
2023-01-04T14:03:43.717Z,100736.63
2023-01-04T14:06:10.925Z,100771.78
2023-01-04T14:08:49.633Z,100784.97
2023-01-04T14:11:43.640Z,100774.41
2023-01-04T14:14:53.814Z,100776.19
2023-01-04T14:17:48.496Z,100776.19
2023-01-04T14:20:19.812Z,100778.81
2023-01-04T14:22:47.357Z,100776.19
2023-01-04T14:25:36.958Z,100754.22
2023-01-04T14:28:22.235Z,100770.91
2023-01-04T14:30:53.390Z,100766.50
2023-01-04T14:33:27.875Z,100764.75
2023-01-04T14:36:07.936Z,100769.13
2023-01-04T14:38:55.730Z,100763.88
2023-01-04T14:41:28.915Z,100763.88
2023-01-04T14:43:56.198Z,100772.66
2023-01-04T14:46:23.693Z,100755.97
2023-01-04T14:48:51.068Z,100770.88
2023-01-04T14:51:23.779Z,100762.13
2023-01-04T14:53:54.988Z,100777.06
2023-01-04T14:56:22.249Z,100774.41
2023-01-04T14:58:49.590Z,100778.81
2023-01-04T15:01:17.230Z,100779.66
2023-01-04T15:03:44.719Z,100791.09
2023-01-04T15:06:12.797Z,100786.72
2023-01-04T15:08:40.192Z,100796.38
2023-01-04T15:11:07.682Z,100784.94
2023-01-04T15:13:39.854Z,100788.44
2023-01-04T15:16:11.939Z,100784.94
2023-01-04T15:18:41.058Z,100792.81
2023-01-04T15:21:09.646Z,100789.31
2023-01-04T15:23:37.779Z,100786.66
2023-01-04T15:26:09.734Z,100784.94
2023-01-04T15:28:39.912Z,100775.25
2023-01-04T15:31:12.468Z,100784.03
2023-01-04T15:33:40.410Z,100776.13
2023-01-04T15:36:23.696Z,100759.41
2023-01-04T15:38:54.478Z,100775.22
2023-01-04T15:41:40.238Z,100777.84
2023-01-04T15:44:10.454Z,100769.06
2023-01-04T15:46:37.974Z,100774.31
2023-01-04T15:49:06.124Z,100788.41
2023-01-04T15:51:34.703Z,100785.75
2023-01-04T15:54:02.142Z,100792.75
2023-01-04T15:56:29.450Z,100786.59
2023-01-04T15:59:03.214Z,100787.47
2023-01-04T16:01:30.876Z,100782.22
2023-01-04T16:03:58.242Z,100788.38
2023-01-04T16:06:27.104Z,100797.16
2023-01-04T16:08:54.391Z,100804.16
2023-01-04T16:11:23.732Z,100805.91
2023-01-04T16:13:53.239Z,100809.44
2023-01-04T16:16:23.565Z,100799.78
2023-01-04T16:18:53.519Z,100779.59
2023-01-04T16:21:23.892Z,100796.28
2023-01-04T16:24:03.897Z,100814.72
2023-01-04T16:26:34.424Z,100812.97
2023-01-04T16:29:02.936Z,100793.63
2023-01-04T16:31:34.846Z,100800.69
2023-01-04T16:34:02.567Z,100801.53
2023-01-04T16:36:30.700Z,100801.56
2023-01-04T16:38:58.163Z,100797.19
2023-01-04T16:41:25.660Z,100795.38
2023-01-04T16:43:55.677Z,100790.13
2023-01-04T16:46:37.329Z,100791.88
2023-01-04T16:49:06.424Z,100798.88
2023-01-04T16:51:35.345Z,100802.34
2023-01-04T16:54:05.178Z,100808.50
2023-01-04T16:56:33.101Z,100791.81
2023-01-04T16:59:02.175Z,100791.78
2023-01-04T17:01:32.655Z,100786.53
2023-01-04T17:04:02.972Z,100798.78
2023-01-04T17:06:32.908Z,100797.91
2023-01-04T17:09:00.895Z,100800.53
2023-01-04T17:14:18.080Z,100788.25
2023-01-04T17:16:45.832Z,100805.81
2023-01-04T17:19:13.288Z,100800.53
2023-01-04T17:21:40.785Z,100810.19
2023-01-04T17:24:09.551Z,100802.28
2023-01-04T17:26:36.831Z,100813.66
2023-01-04T17:29:04.393Z,100813.66
2023-01-04T17:31:34.224Z,100822.47
2023-01-04T17:34:02.857Z,100805.75
2023-01-04T17:36:30.543Z,100813.69
2023-01-04T17:39:01.748Z,100814.53
2023-01-04T17:41:30.842Z,100813.63
2023-01-04T17:44:01.055Z,100814.53
2023-01-04T17:46:32.174Z,100817.16
2023-01-04T17:49:22.829Z,100804.84
2023-01-04T17:51:51.102Z,100801.31
2023-01-04T17:54:21.292Z,100801.28
2023-01-04T17:56:48.956Z,100786.34
2023-01-04T17:59:16.222Z,100791.59
2023-01-04T18:01:43.684Z,100808.28
2023-01-04T18:04:11.429Z,100820.53
2023-01-04T18:06:39.881Z,100797.69
2023-01-04T18:09:08.072Z,100802.06
2023-01-04T18:11:36.002Z,100792.41
2023-01-04T18:14:07.798Z,100782.81
2023-01-04T18:16:56.876Z,100794.19
2023-01-04T18:19:27.803Z,100790.69
2023-01-04T18:21:56.388Z,100778.38
2023-01-04T18:24:39.779Z,100790.66
2023-01-04T18:27:26.408Z,100793.28
2023-01-04T18:29:56.487Z,100774.88
2023-01-04T18:32:26.270Z,100781.03
2023-01-04T18:34:53.761Z,100783.66
2023-01-04T18:37:22.600Z,100787.13
2023-01-04T18:39:50.085Z,100791.50
2023-01-04T18:42:17.872Z,100803.81
2023-01-04T18:44:49.434Z,100797.66
2023-01-04T18:47:20.176Z,100799.41
2023-01-04T18:49:51.444Z,100812.56
2023-01-04T18:52:19.846Z,100795.91
2023-01-04T18:54:48.538Z,100796.75
2023-01-04T18:57:16.286Z,100810.78
2023-01-04T18:59:44.140Z,100795.00
2023-01-04T19:02:17.792Z,100813.41
2023-01-04T19:04:45.510Z,100808.13
2023-01-04T19:07:12.899Z,100826.56
2023-01-04T19:09:41.728Z,100799.38
2023-01-04T19:12:09.385Z,100807.28
2023-01-04T19:14:36.759Z,100795.00
2023-01-04T19:17:04.194Z,100816.03
2023-01-04T19:19:31.604Z,100814.25
2023-01-04T19:21:59.075Z,100824.78
2023-01-04T19:24:27.404Z,100824.81
2023-01-04T19:26:55.185Z,100816.03
2023-01-04T19:29:23.577Z,100820.41
2023-01-04T19:31:50.905Z,100823.91
2023-01-04T19:34:18.125Z,100829.16
2023-01-04T19:36:45.963Z,100822.13
2023-01-04T19:39:13.492Z,100830.88
2023-01-04T19:41:41.057Z,100838.78
2023-01-04T19:44:11.114Z,100845.75
2023-01-04T19:46:39.629Z,100837.88
2023-01-04T19:49:14.284Z,100841.38
2023-01-04T19:51:44.422Z,100828.22
2023-01-04T19:54:12.392Z,100841.34
2023-01-04T19:56:39.988Z,100835.19
2023-01-04T19:59:07.604Z,100834.28
2023-01-04T20:01:35.159Z,100847.44
2023-01-04T20:04:02.796Z,100844.78
2023-01-04T20:06:30.114Z,100856.16
2023-01-04T20:08:57.482Z,100850.91
2023-01-04T20:11:24.988Z,100870.22
2023-01-04T20:13:52.454Z,100857.94
2023-01-04T20:16:20.348Z,100856.22
2023-01-04T20:18:47.595Z,100847.44
2023-01-04T20:21:17.876Z,100848.31
2023-01-04T20:23:45.291Z,100864.13
2023-01-04T20:26:16.010Z,100872.88
2023-01-04T20:28:45.835Z,100861.50
2023-01-04T20:31:16.294Z,100867.63
2023-01-04T20:33:44.022Z,100871.16
2023-01-04T20:36:23.029Z,100889.59
2023-01-04T20:38:50.632Z,100872.94
2023-01-04T20:41:20.955Z,100877.31
2023-01-04T20:43:49.281Z,100889.59
2023-01-04T20:46:24.980Z,100874.63
2023-01-04T20:48:52.339Z,100874.66
2023-01-04T20:51:27.911Z,100880.75
2023-01-04T20:53:59.676Z,100874.63
2023-01-04T20:56:29.264Z,100877.25
2023-01-04T20:58:56.738Z,100885.13
2023-01-04T21:01:25.308Z,100887.72
2023-01-04T21:03:53.242Z,100896.47
2023-01-04T21:06:23.113Z,100899.09
2023-01-04T21:08:52.584Z,100899.09
2023-01-04T21:11:20.599Z,100900.84
2023-01-04T21:13:50.697Z,100908.75
2023-01-04T21:16:18.208Z,100918.38
2023-01-04T21:18:45.516Z,100920.09
2023-01-04T21:21:15.460Z,100906.97
2023-01-04T21:23:44.221Z,100921.88
2023-01-04T21:26:14.650Z,100916.59
2023-01-04T21:28:41.970Z,100910.47
2023-01-04T21:31:24.485Z,100924.50
2023-01-04T21:33:53.399Z,100923.63
2023-01-04T21:36:23.687Z,100917.47
2023-01-04T21:38:52.682Z,100920.13
2023-01-04T21:41:25.211Z,100929.75
2023-01-04T21:43:54.948Z,100928.00
2023-01-04T21:46:23.514Z,100923.56
2023-01-04T21:48:55.626Z,100933.22
2023-01-04T21:51:28.350Z,100925.28
2023-01-04T21:53:55.740Z,100930.53
2023-01-04T21:56:24.559Z,100948.91
2023-01-04T21:58:51.925Z,100940.16
2023-01-04T22:01:22.418Z,100941.03
2023-01-04T22:03:50.069Z,100935.75
2023-01-04T22:06:17.897Z,100939.22
2023-01-04T22:08:46.693Z,100951.53
2023-01-04T22:11:15.169Z,100955.00
2023-01-04T22:13:43.236Z,100951.53
2023-01-04T22:16:13.678Z,100943.63
2023-01-04T22:18:41.147Z,100950.69
2023-01-04T22:21:13.108Z,100949.78
2023-01-04T22:23:40.765Z,100961.22
2023-01-04T22:26:08.282Z,100957.72
2023-01-04T22:28:37.236Z,100966.50
2023-01-04T22:31:07.962Z,100981.41
2023-01-04T22:33:36.513Z,100971.78
2023-01-04T22:36:05.683Z,100971.75
2023-01-04T22:38:40.029Z,100972.59
2023-01-04T22:41:10.267Z,100976.97
2023-01-04T22:43:37.712Z,100986.59
2023-01-04T22:46:08.401Z,100976.09
2023-01-04T22:48:36.092Z,100996.28
2023-01-04T22:51:12.585Z,101001.53
2023-01-04T22:53:40.512Z,100989.28
2023-01-04T22:56:22.338Z,101002.34
2023-01-04T22:58:54.668Z,101004.94
2023-01-04T23:01:34.517Z,101003.09
2023-01-04T23:04:03.227Z,101014.44
2023-01-04T23:06:31.860Z,101016.13
2023-01-04T23:09:06.373Z,101012.56
2023-01-04T23:11:35.376Z,101004.66
2023-01-04T23:14:05.104Z,101026.50
2023-01-04T23:16:33.606Z,101022.09
2023-01-04T23:19:02.173Z,101029.09
2023-01-04T23:21:30.669Z,101042.19
2023-01-04T23:23:58.443Z,101038.69
2023-01-04T23:26:28.800Z,101029.00
2023-01-04T23:28:57.100Z,101039.44
2023-01-04T23:31:27.852Z,101043.81
2023-01-04T23:33:56.931Z,101041.13
2023-01-04T23:36:27.471Z,101044.63
2023-01-04T23:38:57.789Z,101049.00
2023-01-04T23:41:44.561Z,101045.50
2023-01-04T23:44:13.358Z,101055.97
2023-01-04T23:46:40.925Z,101062.13
2023-01-04T23:49:08.821Z,101059.47
2023-01-04T23:51:36.103Z,101053.28
2023-01-04T23:54:03.665Z,101066.41
2023-01-04T23:56:30.912Z,101063.75
2023-01-04T23:58:58.373Z,101060.25
